createdAt,value
2022-11-29T00:00:44.240Z,19.47
2022-11-29T00:01:44.278Z,19.42
2022-11-29T00:02:44.367Z,19.34
2022-11-29T00:03:44.219Z,19.43
2022-11-29T00:04:44.384Z,19.35
2022-11-29T00:05:44.197Z,19.45
2022-11-29T00:06:44.244Z,19.45
2022-11-29T00:07:44.220Z,19.42
2022-11-29T00:08:44.180Z,19.53
2022-11-29T00:09:44.153Z,19.55
2022-11-29T00:10:44.145Z,19.52
2022-11-29T00:11:44.141Z,19.50
2022-11-29T00:12:44.125Z,19.55
2022-11-29T00:13:44.112Z,19.47
2022-11-29T00:14:44.269Z,19.55
2022-11-29T00:15:44.111Z,19.55
2022-11-29T00:16:44.138Z,19.60
2022-11-29T00:17:44.080Z,19.46
2022-11-29T00:18:44.082Z,19.57
2022-11-29T00:19:44.073Z,19.53
2022-11-29T00:20:44.059Z,19.61
2022-11-29T00:21:44.043Z,19.62
2022-11-29T00:22:44.134Z,19.64
2022-11-29T00:23:44.021Z,19.62
2022-11-29T00:24:44.314Z,19.64
2022-11-29T00:25:43.997Z,19.46
2022-11-29T00:26:43.986Z,19.46
2022-11-29T00:27:43.976Z,19.46
2022-11-29T00:28:43.966Z,19.43
2022-11-29T00:29:43.957Z,19.42
2022-11-29T00:30:43.983Z,19.45
2022-11-29T00:31:43.936Z,19.42
2022-11-29T00:32:43.929Z,19.35
2022-11-29T00:33:43.919Z,19.46
2022-11-29T00:34:44.116Z,19.49
2022-11-29T00:35:43.898Z,19.40
2022-11-29T00:36:43.889Z,19.32
2022-11-29T00:37:43.979Z,19.40
2022-11-29T00:38:43.869Z,19.47
2022-11-29T00:39:43.859Z,19.38
2022-11-29T00:40:43.857Z,19.39
2022-11-29T00:41:43.845Z,19.45
2022-11-29T00:42:43.840Z,19.32
2022-11-29T00:43:43.832Z,19.38
2022-11-29T00:44:44.080Z,19.40
2022-11-29T00:45:43.829Z,19.35
2022-11-29T00:46:43.810Z,19.27
2022-11-29T00:47:43.781Z,19.24
2022-11-29T00:48:43.776Z,19.25
2022-11-29T00:49:43.771Z,19.31
2022-11-29T00:50:43.758Z,19.32
2022-11-29T00:51:43.757Z,19.31
2022-11-29T00:52:44.038Z,19.28
2022-11-29T00:53:43.730Z,19.28
2022-11-29T00:54:43.916Z,19.30
2022-11-29T00:55:43.702Z,19.23
2022-11-29T00:56:43.692Z,19.24
2022-11-29T00:57:43.691Z,19.27
2022-11-29T00:58:43.675Z,19.25
2022-11-29T00:59:43.665Z,19.28
2022-11-29T01:00:43.653Z,19.31
2022-11-29T01:01:43.690Z,19.30
2022-11-29T01:02:43.644Z,19.34
2022-11-29T01:03:43.621Z,19.27
2022-11-29T01:04:43.888Z,19.27
2022-11-29T01:05:43.614Z,19.24
2022-11-29T01:06:43.599Z,19.25
2022-11-29T01:07:43.612Z,19.15
2022-11-29T01:08:43.585Z,19.28
2022-11-29T01:09:43.674Z,19.15
2022-11-29T01:10:43.562Z,19.28
2022-11-29T01:11:43.547Z,19.27
2022-11-29T01:12:43.544Z,19.38
2022-11-29T01:13:43.532Z,19.38
2022-11-29T01:14:43.832Z,19.27
2022-11-29T01:15:43.508Z,19.23
2022-11-29T01:16:43.620Z,19.10
2022-11-29T01:17:43.493Z,19.15
2022-11-29T01:18:43.487Z,19.10
2022-11-29T01:19:49.300Z,19.20
2022-11-29T01:20:43.571Z,19.13
2022-11-29T01:21:43.450Z,19.27
2022-11-29T01:22:43.646Z,19.17
2022-11-29T01:23:43.433Z,19.16
2022-11-29T01:24:43.656Z,19.16
2022-11-29T01:25:43.404Z,19.28
2022-11-29T01:26:43.399Z,19.23
2022-11-29T01:27:43.387Z,19.23
2022-11-29T01:28:43.382Z,19.13
2022-11-29T01:29:43.368Z,19.23
2022-11-29T01:30:43.495Z,19.23
2022-11-29T01:31:43.346Z,19.27
2022-11-29T01:32:43.343Z,19.27
2022-11-29T01:33:43.330Z,19.40
2022-11-29T01:34:43.485Z,19.27
2022-11-29T01:35:43.311Z,19.32
2022-11-29T01:36:43.302Z,19.39
2022-11-29T01:37:43.290Z,19.34
2022-11-29T01:38:43.279Z,19.31
2022-11-29T01:39:43.327Z,19.35
2022-11-29T01:40:43.367Z,19.35
2022-11-29T01:41:43.248Z,19.43
2022-11-29T01:42:43.232Z,19.43
2022-11-29T01:43:43.222Z,19.42
2022-11-29T01:44:43.300Z,19.47
2022-11-29T01:45:43.230Z,19.46
2022-11-29T01:46:43.192Z,19.47
2022-11-29T01:47:43.181Z,19.38
2022-11-29T01:48:43.184Z,19.43
2022-11-29T01:49:43.177Z,19.42
2022-11-29T01:50:43.261Z,19.42
2022-11-29T01:51:43.153Z,19.49
2022-11-29T01:52:43.143Z,19.47
2022-11-29T01:53:43.128Z,19.52
2022-11-29T01:54:43.507Z,19.52
2022-11-29T01:55:43.155Z,19.55
2022-11-29T01:56:43.101Z,19.55
2022-11-29T01:57:43.091Z,19.53
2022-11-29T01:58:43.083Z,19.49
2022-11-29T01:59:43.071Z,19.64
2022-11-29T02:00:43.168Z,19.62
2022-11-29T02:01:43.116Z,19.60
2022-11-29T02:02:43.091Z,19.60
2022-11-29T02:03:43.032Z,19.64
2022-11-29T02:04:43.251Z,19.62
2022-11-29T02:05:43.022Z,19.60
2022-11-29T02:06:43.002Z,19.65
2022-11-29T02:07:43.036Z,19.61
2022-11-29T02:08:42.991Z,19.61
2022-11-29T02:09:42.976Z,19.62
2022-11-29T02:10:43.066Z,19.58
2022-11-29T02:11:42.958Z,19.53
2022-11-29T02:12:42.954Z,19.60
2022-11-29T02:13:42.934Z,19.58
2022-11-29T02:14:43.311Z,19.61
2022-11-29T02:15:42.963Z,19.52
2022-11-29T02:16:42.909Z,19.55
2022-11-29T02:17:42.900Z,19.49
2022-11-29T02:18:42.889Z,19.57
2022-11-29T02:19:42.874Z,19.55
2022-11-29T02:20:42.967Z,19.47
2022-11-29T02:21:42.859Z,19.52
2022-11-29T02:22:42.851Z,19.60
2022-11-29T02:23:42.834Z,19.57
2022-11-29T02:24:43.063Z,19.53
2022-11-29T02:25:42.855Z,19.52
2022-11-29T02:26:42.809Z,19.52
2022-11-29T02:27:42.797Z,19.55
2022-11-29T02:28:42.791Z,19.47
2022-11-29T02:29:42.784Z,19.57
2022-11-29T02:30:42.849Z,19.57
2022-11-29T02:31:42.762Z,19.58
2022-11-29T02:32:42.751Z,19.55
2022-11-29T02:33:42.739Z,19.47
2022-11-29T02:34:43.124Z,19.50
2022-11-29T02:35:42.722Z,19.62
2022-11-29T02:36:42.714Z,19.57
2022-11-29T02:37:42.699Z,19.60
2022-11-29T02:38:42.695Z,19.58
2022-11-29T02:39:42.686Z,19.55
2022-11-29T02:40:42.672Z,19.58
2022-11-29T02:41:42.662Z,19.55
2022-11-29T02:42:42.653Z,19.58
2022-11-29T02:43:42.649Z,19.65
2022-11-29T02:44:42.759Z,19.61
2022-11-29T02:45:42.792Z,19.64
2022-11-29T02:46:42.614Z,19.57
2022-11-29T02:47:42.600Z,19.61
2022-11-29T02:48:42.597Z,19.68
2022-11-29T02:49:42.585Z,19.65
2022-11-29T02:50:42.578Z,19.55
2022-11-29T02:51:42.565Z,19.52
2022-11-29T02:52:42.661Z,19.57
2022-11-29T02:53:42.556Z,19.70
2022-11-29T02:54:42.819Z,19.64
2022-11-29T02:55:42.530Z,19.61
2022-11-29T02:56:42.515Z,19.67
2022-11-29T02:57:42.519Z,19.55
2022-11-29T02:58:42.500Z,19.58
2022-11-29T02:59:42.491Z,19.55
2022-11-29T03:00:42.480Z,19.55
2022-11-29T03:01:42.496Z,19.53
2022-11-29T03:02:42.622Z,19.55
2022-11-29T03:03:42.565Z,19.53
2022-11-29T03:04:42.669Z,19.50
2022-11-29T03:05:42.431Z,19.58
2022-11-29T03:06:42.420Z,19.55
2022-11-29T03:07:42.546Z,19.52
2022-11-29T03:08:42.400Z,19.57
2022-11-29T03:09:42.488Z,19.49
2022-11-29T03:10:42.379Z,19.52
2022-11-29T03:11:42.372Z,19.45
2022-11-29T03:12:42.458Z,19.39
2022-11-29T03:13:42.453Z,19.42
2022-11-29T03:14:42.593Z,19.45
2022-11-29T03:15:42.484Z,19.40
2022-11-29T03:16:43.534Z,19.42
2022-11-29T03:17:42.314Z,19.40
2022-11-29T03:18:42.306Z,19.43
2022-11-29T03:19:42.300Z,19.43
2022-11-29T03:20:42.288Z,19.47
2022-11-29T03:21:42.279Z,19.58
2022-11-29T03:22:42.264Z,19.53
2022-11-29T03:23:42.365Z,19.47
2022-11-29T03:24:42.385Z,19.53
2022-11-29T03:25:42.241Z,19.57
2022-11-29T03:26:42.229Z,19.57
2022-11-29T03:27:42.227Z,19.60
2022-11-29T03:28:42.209Z,19.57
2022-11-29T03:29:42.198Z,19.60
2022-11-29T03:30:42.228Z,19.58
2022-11-29T03:31:42.181Z,19.57
2022-11-29T03:32:42.169Z,19.52
2022-11-29T03:33:42.255Z,19.50
2022-11-29T03:34:42.372Z,19.53
2022-11-29T03:35:42.135Z,19.62
2022-11-29T03:36:42.135Z,19.62
2022-11-29T03:37:42.121Z,19.61
2022-11-29T03:38:42.107Z,19.60
2022-11-29T03:39:42.104Z,19.70
2022-11-29T03:40:42.087Z,19.64
2022-11-29T03:41:42.085Z,19.60
2022-11-29T03:42:42.072Z,19.72
2022-11-29T03:43:42.065Z,19.65
2022-11-29T03:44:42.215Z,19.61
2022-11-29T03:45:42.049Z,19.70
2022-11-29T03:46:42.077Z,19.64
2022-11-29T03:47:42.022Z,19.67
2022-11-29T03:48:42.012Z,19.68
2022-11-29T03:49:42.010Z,19.64
2022-11-29T03:50:41.996Z,19.70
2022-11-29T03:51:41.992Z,19.68
2022-11-29T03:52:41.978Z,19.58
2022-11-29T03:53:41.975Z,19.68
2022-11-29T03:54:42.184Z,19.72
2022-11-29T03:55:41.943Z,19.71
2022-11-29T03:56:41.935Z,19.67
2022-11-29T03:57:41.932Z,19.61
2022-11-29T03:58:42.015Z,19.68
2022-11-29T03:59:41.909Z,19.65
2022-11-29T04:00:41.901Z,19.70
2022-11-29T04:01:41.934Z,19.71
2022-11-29T04:02:41.947Z,19.67
2022-11-29T04:03:41.869Z,19.70
2022-11-29T04:04:41.963Z,19.65
2022-11-29T04:05:41.854Z,19.65
2022-11-29T04:06:41.841Z,19.67
2022-11-29T04:07:41.884Z,19.68
2022-11-29T04:08:41.821Z,19.70
2022-11-29T04:09:41.810Z,19.83
2022-11-29T04:10:41.804Z,19.71
2022-11-29T04:11:41.801Z,19.83
2022-11-29T04:12:41.786Z,19.83
2022-11-29T04:13:41.773Z,19.70
2022-11-29T04:14:41.906Z,19.83
2022-11-29T04:15:41.814Z,19.72
2022-11-29T04:16:41.747Z,19.83
2022-11-29T04:17:41.739Z,19.80
2022-11-29T04:18:41.824Z,19.82
2022-11-29T04:19:41.719Z,19.78
2022-11-29T04:20:46.686Z,19.78
2022-11-29T04:21:41.695Z,19.82
2022-11-29T04:22:41.691Z,19.68
2022-11-29T04:23:41.679Z,19.71
2022-11-29T04:24:41.793Z,19.71
2022-11-29T04:25:41.664Z,19.78
2022-11-29T04:26:41.651Z,19.78
2022-11-29T04:27:41.639Z,19.76
2022-11-29T04:28:41.628Z,19.70
2022-11-29T04:29:41.619Z,19.80
2022-11-29T04:30:41.713Z,19.78
2022-11-29T04:31:41.604Z,19.85
2022-11-29T04:32:41.591Z,19.85
2022-11-29T04:33:41.585Z,19.89
2022-11-29T04:34:41.790Z,19.80
2022-11-29T04:35:41.560Z,19.71
2022-11-29T04:36:41.549Z,19.71
2022-11-29T04:37:41.556Z,19.68
2022-11-29T04:38:41.535Z,19.75
2022-11-29T04:39:41.528Z,19.70
2022-11-29T04:40:41.519Z,19.76
2022-11-29T04:41:41.505Z,19.75
2022-11-29T04:42:41.499Z,19.76
2022-11-29T04:43:41.489Z,19.75
2022-11-29T04:44:41.565Z,19.79
2022-11-29T04:45:41.463Z,19.75
2022-11-29T04:46:41.530Z,19.79
2022-11-29T04:47:41.449Z,19.85
2022-11-29T04:48:41.443Z,19.83
2022-11-29T04:49:41.435Z,19.83
2022-11-29T04:50:41.419Z,19.85
2022-11-29T04:51:41.510Z,19.83
2022-11-29T04:52:41.398Z,20.01
2022-11-29T04:53:41.388Z,19.98
2022-11-29T04:54:41.386Z,19.87
2022-11-29T04:55:41.376Z,19.83
2022-11-29T04:56:41.361Z,19.82
2022-11-29T04:57:41.353Z,19.94
2022-11-29T04:58:41.343Z,19.92
2022-11-29T04:59:41.335Z,19.90
2022-11-29T05:00:41.323Z,19.90
2022-11-29T05:01:41.445Z,19.94
2022-11-29T05:02:41.372Z,19.94
2022-11-29T05:03:41.298Z,19.94
2022-11-29T05:04:41.287Z,20.07
2022-11-29T05:05:41.280Z,20.07
2022-11-29T05:06:41.267Z,20.05
2022-11-29T05:07:41.352Z,20.05
2022-11-29T05:08:41.278Z,20.05
2022-11-29T05:09:41.239Z,20.01
2022-11-29T05:10:41.236Z,20.07
2022-11-29T05:11:41.322Z,19.98
2022-11-29T05:12:41.236Z,19.98
2022-11-29T05:13:41.209Z,20.02
2022-11-29T05:14:41.205Z,20.01
2022-11-29T05:15:41.301Z,20.00
2022-11-29T05:16:41.175Z,20.00
2022-11-29T05:17:41.166Z,20.04
2022-11-29T05:18:41.155Z,20.00
2022-11-29T05:19:41.154Z,20.05
2022-11-29T05:20:41.132Z,20.05
2022-11-29T05:21:41.133Z,20.00
2022-11-29T05:22:41.116Z,20.10
2022-11-29T05:23:41.105Z,20.05
2022-11-29T05:24:41.099Z,20.00
2022-11-29T05:25:41.096Z,19.94
2022-11-29T05:26:41.080Z,19.97
2022-11-29T05:27:41.072Z,19.85
2022-11-29T05:28:41.060Z,19.86
2022-11-29T05:29:41.054Z,19.83
2022-11-29T05:30:41.043Z,19.89
2022-11-29T05:31:41.032Z,19.86
2022-11-29T05:32:41.032Z,19.95
2022-11-29T05:33:41.014Z,19.94
2022-11-29T05:34:40.999Z,19.95
2022-11-29T05:35:40.998Z,19.92
2022-11-29T05:36:41.083Z,20.00
2022-11-29T05:37:40.979Z,19.95
2022-11-29T05:38:40.985Z,19.92
2022-11-29T05:39:40.958Z,19.98
2022-11-29T05:40:40.950Z,19.97
2022-11-29T05:41:40.943Z,20.02
2022-11-29T05:42:40.928Z,19.92
2022-11-29T05:43:40.924Z,20.12
2022-11-29T05:44:40.907Z,19.97
2022-11-29T05:45:40.898Z,20.08
2022-11-29T05:46:40.930Z,20.12
2022-11-29T05:47:40.894Z,20.08
2022-11-29T05:48:40.875Z,20.02
2022-11-29T05:49:40.864Z,19.92
2022-11-29T05:50:40.862Z,19.95
2022-11-29T05:51:40.943Z,19.98
2022-11-29T05:52:40.834Z,20.05
2022-11-29T05:53:40.829Z,19.97
2022-11-29T05:54:41.122Z,20.00
2022-11-29T05:55:40.900Z,19.94
2022-11-29T05:56:40.883Z,19.98
2022-11-29T05:57:40.789Z,20.04
2022-11-29T05:58:40.784Z,20.05
2022-11-29T05:59:40.773Z,19.92
2022-11-29T06:00:40.770Z,19.92
2022-11-29T06:01:40.866Z,19.98
2022-11-29T06:02:40.778Z,19.98
2022-11-29T06:03:40.733Z,19.90
2022-11-29T06:04:40.725Z,19.90
2022-11-29T06:05:40.719Z,19.98
2022-11-29T06:06:40.705Z,19.98
2022-11-29T06:07:40.826Z,19.97
2022-11-29T06:08:40.685Z,19.94
2022-11-29T06:09:40.686Z,20.02
2022-11-29T06:10:40.675Z,19.94
2022-11-29T06:11:40.654Z,20.05
2022-11-29T06:12:40.651Z,20.02
2022-11-29T06:13:40.639Z,20.04
2022-11-29T06:14:40.631Z,20.10
2022-11-29T06:15:40.620Z,20.13
2022-11-29T06:16:40.613Z,20.04
2022-11-29T06:17:40.602Z,20.10
2022-11-29T06:18:40.697Z,20.13
2022-11-29T06:19:40.582Z,20.05
2022-11-29T06:20:40.574Z,20.05
2022-11-29T06:21:40.563Z,20.10
2022-11-29T06:22:40.555Z,20.08
2022-11-29T06:23:40.543Z,20.17
2022-11-29T06:24:40.532Z,20.05
2022-11-29T06:25:40.534Z,20.04
2022-11-29T06:26:40.515Z,20.05
2022-11-29T06:27:40.505Z,20.05
2022-11-29T06:28:40.499Z,20.04
2022-11-29T06:29:40.487Z,20.08
2022-11-29T06:30:40.491Z,20.02
2022-11-29T06:31:40.541Z,20.04
2022-11-29T06:32:40.461Z,20.04
2022-11-29T06:33:40.562Z,20.05
2022-11-29T06:34:40.445Z,20.00
2022-11-29T06:35:40.443Z,19.98
2022-11-29T06:36:40.428Z,20.05
2022-11-29T06:37:40.412Z,20.10
2022-11-29T06:38:40.404Z,20.16
2022-11-29T06:39:40.397Z,20.13
2022-11-29T06:40:40.387Z,20.13
2022-11-29T06:41:40.379Z,20.07
2022-11-29T06:42:40.368Z,20.07
2022-11-29T06:43:40.360Z,20.07
2022-11-29T06:44:40.351Z,20.01
2022-11-29T06:45:40.349Z,20.08
2022-11-29T06:46:40.398Z,19.98
2022-11-29T06:47:40.323Z,19.92
2022-11-29T06:48:40.414Z,19.95
2022-11-29T06:49:40.309Z,19.92
2022-11-29T06:50:40.299Z,19.94
2022-11-29T06:51:40.288Z,19.95
2022-11-29T06:52:40.276Z,20.00
2022-11-29T06:53:40.263Z,19.98
2022-11-29T06:54:40.255Z,19.98
2022-11-29T06:55:40.251Z,19.94
2022-11-29T06:56:40.968Z,20.04
2022-11-29T06:57:40.244Z,19.97
2022-11-29T06:58:40.218Z,20.00
2022-11-29T06:59:40.213Z,20.04
2022-11-29T07:00:40.239Z,20.07
2022-11-29T07:01:40.274Z,20.01
2022-11-29T07:02:40.188Z,20.04
2022-11-29T07:03:40.276Z,20.02
2022-11-29T07:04:45.434Z,20.10
2022-11-29T07:05:40.158Z,20.10
2022-11-29T07:06:40.140Z,20.10
2022-11-29T07:07:40.184Z,20.04
2022-11-29T07:08:40.135Z,20.08
2022-11-29T07:09:40.118Z,20.02
2022-11-29T07:10:40.102Z,20.04
2022-11-29T07:11:40.102Z,20.04
2022-11-29T07:12:40.100Z,20.00
2022-11-29T07:13:40.085Z,20.05
2022-11-29T07:14:40.069Z,20.02
2022-11-29T07:15:40.061Z,20.07
2022-11-29T07:16:40.100Z,20.07
2022-11-29T07:17:40.048Z,20.02
2022-11-29T07:18:40.037Z,20.02
2022-11-29T07:19:40.027Z,20.10
2022-11-29T07:20:40.020Z,20.13
2022-11-29T07:21:40.012Z,20.15
2022-11-29T07:22:39.997Z,20.22
2022-11-29T07:23:39.985Z,20.16
2022-11-29T07:24:39.985Z,20.12
2022-11-29T07:25:39.977Z,20.10
2022-11-29T07:26:39.959Z,20.04
2022-11-29T07:27:39.950Z,20.05
2022-11-29T07:28:39.945Z,20.13
2022-11-29T07:29:39.932Z,20.00
2022-11-29T07:30:39.919Z,20.08
2022-11-29T07:31:40.018Z,20.02
2022-11-29T07:32:39.911Z,20.00
2022-11-29T07:33:39.996Z,20.02
2022-11-29T07:34:39.888Z,20.02
2022-11-29T07:35:39.874Z,20.13
2022-11-29T07:36:39.868Z,20.02
2022-11-29T07:37:39.870Z,20.07
2022-11-29T07:38:39.849Z,20.12
2022-11-29T07:39:39.834Z,20.10
2022-11-29T07:40:39.827Z,20.08
2022-11-29T07:41:39.824Z,20.17
2022-11-29T07:42:39.811Z,20.12
2022-11-29T07:43:39.806Z,20.15
2022-11-29T07:44:39.794Z,20.20
2022-11-29T07:45:39.786Z,20.17
2022-11-29T07:46:39.816Z,20.19
2022-11-29T07:47:39.773Z,20.19
2022-11-29T07:48:39.756Z,20.08
2022-11-29T07:49:39.850Z,20.20
2022-11-29T07:50:39.777Z,20.12
2022-11-29T07:51:39.731Z,20.15
2022-11-29T07:52:39.720Z,20.12
2022-11-29T07:53:39.705Z,20.10
2022-11-29T07:54:39.711Z,20.04
2022-11-29T07:55:39.687Z,20.13
2022-11-29T07:56:39.685Z,20.22
2022-11-29T07:57:39.673Z,20.10
2022-11-29T07:58:39.765Z,20.15
2022-11-29T07:59:39.660Z,20.15
2022-11-29T08:00:39.806Z,20.17
2022-11-29T08:01:39.669Z,20.13
2022-11-29T08:02:39.682Z,20.16
2022-11-29T08:03:39.624Z,20.17
2022-11-29T08:04:39.613Z,20.17
2022-11-29T08:05:39.698Z,20.20
2022-11-29T08:06:39.593Z,20.19
2022-11-29T08:07:39.604Z,20.23
2022-11-29T08:08:43.939Z,20.22
2022-11-29T08:09:39.566Z,20.23
2022-11-29T08:10:39.552Z,20.15
2022-11-29T08:11:39.546Z,20.19
2022-11-29T08:12:39.539Z,20.17
2022-11-29T08:13:39.529Z,20.19
2022-11-29T08:14:39.527Z,20.10
2022-11-29T08:15:39.606Z,20.25
2022-11-29T08:16:39.558Z,20.19
2022-11-29T08:17:39.494Z,20.23
2022-11-29T08:18:39.482Z,20.30
2022-11-29T08:19:39.470Z,20.25
2022-11-29T08:20:39.468Z,20.17
2022-11-29T08:21:39.445Z,20.26
2022-11-29T08:22:39.451Z,20.22
2022-11-29T08:23:39.438Z,20.27
2022-11-29T08:24:39.426Z,20.25
2022-11-29T08:25:39.417Z,20.25
2022-11-29T08:26:39.415Z,20.17
2022-11-29T08:27:39.395Z,20.25
2022-11-29T08:28:39.387Z,20.17
2022-11-29T08:29:39.372Z,20.20
2022-11-29T08:30:39.478Z,20.33
2022-11-29T08:31:39.424Z,20.19
2022-11-29T08:32:39.351Z,20.13
2022-11-29T08:33:39.340Z,20.13
2022-11-29T08:34:39.333Z,20.01
2022-11-29T08:35:39.324Z,20.10
2022-11-29T08:36:39.310Z,20.04
2022-11-29T08:37:39.304Z,20.15
2022-11-29T08:38:39.297Z,20.20
2022-11-29T08:39:39.290Z,20.16
2022-11-29T08:40:39.377Z,20.16
2022-11-29T08:41:39.262Z,20.16
2022-11-29T08:42:39.268Z,20.12
2022-11-29T08:43:39.257Z,20.10
2022-11-29T08:44:39.242Z,20.20
2022-11-29T08:45:39.337Z,20.16
2022-11-29T08:46:39.234Z,20.19
2022-11-29T08:47:39.211Z,20.19
2022-11-29T08:48:39.211Z,20.25
2022-11-29T08:49:39.199Z,20.17
2022-11-29T08:50:39.290Z,20.17
2022-11-29T08:51:39.177Z,20.20
2022-11-29T08:52:39.171Z,20.26
2022-11-29T08:53:39.160Z,20.37
2022-11-29T08:54:39.153Z,20.30
2022-11-29T08:55:39.143Z,20.27
2022-11-29T08:57:40.544Z,20.20
2022-11-29T08:58:39.112Z,20.38
2022-11-29T08:59:39.099Z,20.26
2022-11-29T09:00:39.332Z,20.31
2022-11-29T09:01:39.113Z,20.38
2022-11-29T09:02:39.090Z,20.33
2022-11-29T09:03:39.072Z,20.37
2022-11-29T09:04:39.060Z,20.37
2022-11-29T09:05:39.046Z,20.41
2022-11-29T09:06:39.042Z,20.40
2022-11-29T09:07:39.110Z,20.41
2022-11-29T09:08:39.030Z,20.42
2022-11-29T09:09:39.015Z,20.42
2022-11-29T09:10:39.100Z,20.40
2022-11-29T09:11:39.004Z,20.38
2022-11-29T09:12:38.993Z,20.42
2022-11-29T09:13:38.982Z,20.42
2022-11-29T09:14:38.968Z,20.40
2022-11-29T09:15:38.959Z,20.54
2022-11-29T09:16:38.980Z,20.50
2022-11-29T09:17:38.949Z,20.41
2022-11-29T09:18:38.936Z,20.54
2022-11-29T09:19:38.926Z,20.40
2022-11-29T09:20:39.022Z,20.51
2022-11-29T09:21:38.901Z,20.53
2022-11-29T09:22:38.900Z,20.60
2022-11-29T09:23:38.888Z,20.54
2022-11-29T09:24:38.889Z,20.63
2022-11-29T09:25:38.870Z,20.61
2022-11-29T09:26:38.865Z,20.58
2022-11-29T09:27:38.852Z,20.63
2022-11-29T09:28:38.840Z,20.69
2022-11-29T09:29:38.837Z,20.75
2022-11-29T09:30:38.925Z,20.78
2022-11-29T09:31:38.847Z,20.81
2022-11-29T09:32:38.805Z,20.82
2022-11-29T09:33:38.807Z,20.81
2022-11-29T09:34:38.786Z,20.85
2022-11-29T09:35:38.784Z,20.82
2022-11-29T09:36:38.780Z,20.94
2022-11-29T09:37:38.763Z,20.88
2022-11-29T09:38:38.757Z,21.05
2022-11-29T09:39:38.746Z,21.08
2022-11-29T09:40:38.749Z,20.98
2022-11-29T09:41:40.277Z,21.09
2022-11-29T09:42:38.723Z,21.08
2022-11-29T09:43:38.718Z,21.09
2022-11-29T09:44:38.706Z,21.09
2022-11-29T09:45:38.759Z,21.05
2022-11-29T09:46:38.684Z,21.06
2022-11-29T09:47:38.678Z,21.24
2022-11-29T09:48:38.670Z,21.11
2022-11-29T09:49:38.662Z,21.19
2022-11-29T09:50:38.651Z,21.19
2022-11-29T09:51:43.956Z,21.22
2022-11-29T09:52:38.741Z,21.26
2022-11-29T09:53:38.629Z,21.40
2022-11-29T09:54:38.622Z,21.30
2022-11-29T09:55:38.615Z,21.37
2022-11-29T09:56:38.609Z,21.45
2022-11-29T09:57:38.594Z,21.42
2022-11-29T09:58:38.589Z,21.48
2022-11-29T09:59:38.578Z,21.55
2022-11-29T10:00:38.576Z,21.58
2022-11-29T10:01:38.598Z,21.56
2022-11-29T10:02:38.595Z,21.67
2022-11-29T10:03:38.648Z,21.68
2022-11-29T10:04:38.543Z,21.73
2022-11-29T10:05:38.531Z,21.67
2022-11-29T10:06:38.524Z,21.70
2022-11-29T10:07:38.556Z,21.66
2022-11-29T10:08:38.530Z,21.71
2022-11-29T10:09:38.499Z,21.71
2022-11-29T10:10:38.520Z,21.83
2022-11-29T10:11:38.483Z,21.74
2022-11-29T10:12:38.486Z,21.79
2022-11-29T10:13:38.465Z,21.89
2022-11-29T10:14:38.462Z,21.93
2022-11-29T10:15:38.445Z,21.90
2022-11-29T10:16:38.491Z,22.02
2022-11-29T10:17:38.433Z,21.99
2022-11-29T10:18:38.442Z,21.94
2022-11-29T10:19:38.427Z,22.12
2022-11-29T10:20:41.562Z,22.17
2022-11-29T10:21:38.399Z,22.21
2022-11-29T10:22:38.397Z,22.19
2022-11-29T10:23:38.386Z,22.21
2022-11-29T10:24:38.401Z,22.23
2022-11-29T10:25:38.361Z,22.20
2022-11-29T10:26:38.357Z,22.27
2022-11-29T10:27:38.341Z,22.27
2022-11-29T10:28:38.355Z,22.33
2022-11-29T10:29:38.338Z,22.26
2022-11-29T10:30:38.370Z,22.44
2022-11-29T10:31:38.329Z,22.39
2022-11-29T10:32:38.320Z,22.33
2022-11-29T10:33:38.313Z,22.41
2022-11-29T10:34:38.314Z,22.45
2022-11-29T10:35:38.299Z,22.45
2022-11-29T10:36:38.292Z,22.54
2022-11-29T10:37:38.280Z,22.49
2022-11-29T10:38:38.382Z,22.45
2022-11-29T10:39:38.271Z,22.46
2022-11-29T10:40:38.254Z,22.46
2022-11-29T10:41:38.254Z,22.60
2022-11-29T10:42:38.253Z,22.57
2022-11-29T10:43:38.240Z,22.64
2022-11-29T10:44:38.241Z,22.63
2022-11-29T10:45:38.264Z,22.70
2022-11-29T10:46:38.215Z,22.70
2022-11-29T10:47:38.207Z,22.67
2022-11-29T10:48:38.209Z,22.69
2022-11-29T10:49:38.188Z,22.67
2022-11-29T10:50:38.190Z,22.72
2022-11-29T10:51:38.175Z,22.67
2022-11-29T10:52:38.169Z,22.64
2022-11-29T10:53:38.260Z,22.56
2022-11-29T10:54:38.167Z,22.57
2022-11-29T10:55:38.149Z,22.59
2022-11-29T10:56:38.141Z,22.56
2022-11-29T10:57:38.133Z,22.61
2022-11-29T10:58:38.127Z,22.60
2022-11-29T10:59:38.117Z,22.70
2022-11-29T11:00:38.112Z,22.74
2022-11-29T11:01:38.165Z,22.74
2022-11-29T11:02:38.093Z,22.78
2022-11-29T11:03:38.193Z,22.86
2022-11-29T11:04:38.080Z,22.82
2022-11-29T11:05:38.164Z,22.91
2022-11-29T11:06:38.064Z,22.94
2022-11-29T11:07:38.074Z,23.00
2022-11-29T11:08:38.049Z,23.01
2022-11-29T11:09:38.050Z,23.00
2022-11-29T11:10:38.037Z,22.97
2022-11-29T11:11:38.024Z,23.00
2022-11-29T11:12:38.025Z,23.07
2022-11-29T11:13:38.014Z,23.09
2022-11-29T11:14:38.010Z,23.06
2022-11-29T11:15:38.007Z,23.07
2022-11-29T11:16:38.078Z,23.11
2022-11-29T11:17:37.985Z,23.09
2022-11-29T11:18:38.078Z,22.97
2022-11-29T11:19:37.968Z,22.99
2022-11-29T11:20:37.986Z,23.09
2022-11-29T11:21:37.968Z,23.06
2022-11-29T11:22:37.955Z,23.03
2022-11-29T11:23:42.583Z,23.07
2022-11-29T11:24:37.951Z,23.15
2022-11-29T11:25:37.938Z,23.22
2022-11-29T11:26:37.923Z,23.34
2022-11-29T11:27:37.919Z,23.26
2022-11-29T11:28:37.913Z,23.38
2022-11-29T11:29:37.899Z,23.31
2022-11-29T11:30:37.981Z,23.42
2022-11-29T11:31:37.888Z,23.50
2022-11-29T11:32:37.880Z,23.52
2022-11-29T11:33:37.878Z,23.63
2022-11-29T11:34:37.873Z,23.71
2022-11-29T11:35:37.867Z,23.67
2022-11-29T11:36:37.852Z,23.60
2022-11-29T11:37:37.852Z,23.72
2022-11-29T11:38:37.848Z,23.84
2022-11-29T11:39:37.842Z,23.89
2022-11-29T11:40:37.857Z,23.93
2022-11-29T11:41:37.817Z,23.92
2022-11-29T11:42:37.825Z,23.89
2022-11-29T11:43:37.813Z,23.71
2022-11-29T11:44:52.985Z,23.86
2022-11-29T11:45:37.805Z,23.82
2022-11-29T11:46:37.813Z,23.86
2022-11-29T11:47:37.783Z,23.92
2022-11-29T11:48:37.773Z,23.82
2022-11-29T11:49:37.769Z,23.93
2022-11-29T11:50:37.767Z,23.93
2022-11-29T11:51:37.766Z,23.96
2022-11-29T11:52:40.721Z,23.96
2022-11-29T11:53:37.739Z,24.02
2022-11-29T11:54:37.735Z,24.04
2022-11-29T11:55:37.738Z,24.06
2022-11-29T11:56:37.725Z,23.97
2022-11-29T11:57:37.724Z,24.02
2022-11-29T11:58:37.711Z,24.12
2022-11-29T11:59:37.702Z,24.11
2022-11-29T12:01:02.437Z,24.11
2022-11-29T12:01:37.694Z,24.15
2022-11-29T12:02:37.778Z,24.15
2022-11-29T12:03:37.749Z,24.24
2022-11-29T12:04:37.679Z,24.19
2022-11-29T12:05:37.678Z,24.16
2022-11-29T12:06:37.656Z,24.27
2022-11-29T12:08:06.925Z,24.36
2022-11-29T12:08:37.715Z,24.34
2022-11-29T12:09:37.641Z,24.49
2022-11-29T12:10:37.631Z,24.44
2022-11-29T12:11:37.731Z,24.52
2022-11-29T12:12:37.627Z,24.53
2022-11-29T12:13:37.617Z,24.60
2022-11-29T12:14:37.608Z,24.77
2022-11-29T12:15:37.664Z,24.79
2022-11-29T12:16:37.596Z,24.87
2022-11-29T12:17:37.594Z,24.92
2022-11-29T12:18:37.586Z,24.87
2022-11-29T12:19:37.585Z,24.92
2022-11-29T12:20:37.580Z,24.99
2022-11-29T12:21:37.578Z,24.93
2022-11-29T12:22:37.667Z,25.16
2022-11-29T12:23:37.557Z,24.99
2022-11-29T12:24:37.558Z,25.05
2022-11-29T12:25:37.543Z,25.14
2022-11-29T12:27:37.537Z,25.30
2022-11-29T12:28:37.530Z,25.35
2022-11-29T12:29:37.525Z,25.38
2022-11-29T12:30:37.517Z,25.29
2022-11-29T12:31:37.565Z,25.30
2022-11-29T12:32:37.610Z,25.36
2022-11-29T12:33:37.517Z,25.42
2022-11-29T12:34:38.719Z,25.54
2022-11-29T12:35:37.496Z,25.63
2022-11-29T12:36:37.490Z,25.67
2022-11-29T12:37:37.495Z,25.71
2022-11-29T12:38:37.471Z,25.75
2022-11-29T12:39:37.469Z,25.82
2022-11-29T12:40:37.481Z,25.75
2022-11-29T12:41:37.462Z,25.71
2022-11-29T12:42:37.455Z,25.83
2022-11-29T12:43:37.451Z,26.00
2022-11-29T12:44:37.457Z,26.16
2022-11-29T12:45:37.446Z,26.31
2022-11-29T12:46:37.532Z,26.42
2022-11-29T12:47:37.592Z,26.42
2022-11-29T12:48:37.431Z,26.49
2022-11-29T12:49:37.426Z,26.50
2022-11-29T12:50:37.412Z,26.53
2022-11-29T12:51:37.410Z,26.47
2022-11-29T12:52:37.405Z,26.47
2022-11-29T12:53:37.414Z,26.49
2022-11-29T12:54:37.404Z,26.51